sensor_id;sensor_type;location;lat;lon;timestamp;pressure;altitude;pressure_sealevel;temperature;humidity
62544;BME280;48597;49.030;1.822;2023-04-01T00:02:06;99406.38;;;19.55;41.66
62544;BME280;48597;49.030;1.822;2023-04-01T00:04:31;99409.72;;;19.54;41.76
62544;BME280;48597;49.030;1.822;2023-04-01T00:06:57;99406.84;;;19.54;41.59
62544;BME280;48597;49.030;1.822;2023-04-01T00:09:23;99416.69;;;19.53;41.65
62544;BME280;48597;49.030;1.822;2023-04-01T00:11:49;99407.34;;;19.52;41.57
62544;BME280;48597;49.030;1.822;2023-04-01T00:14:14;99405.75;;;19.51;41.67
62544;BME280;48597;49.030;1.822;2023-04-01T00:16:40;99411.47;;;19.51;41.58
62544;BME280;48597;49.030;1.822;2023-04-01T00:19:05;99400.03;;;19.51;41.65
62544;BME280;48597;49.030;1.822;2023-04-01T00:21:31;99408.28;;;19.49;41.57
62544;BME280;48597;49.030;1.822;2023-04-01T00:23:56;99409.53;;;19.48;41.74
62544;BME280;48597;49.030;1.822;2023-04-01T00:26:22;99410.34;;;19.49;41.65
62544;BME280;48597;49.030;1.822;2023-04-01T00:28:49;99416.56;;;19.47;41.67
62544;BME280;48597;49.030;1.822;2023-04-01T00:31:14;99413.22;;;19.49;41.77
62544;BME280;48597;49.030;1.822;2023-04-01T00:33:40;99418.63;;;19.47;41.77
62544;BME280;48597;49.030;1.822;2023-04-01T00:36:11;99419.88;;;19.46;41.74
62544;BME280;48597;49.030;1.822;2023-04-01T00:38:38;99423.53;;;19.46;41.79
62544;BME280;48597;49.030;1.822;2023-04-01T00:41:04;99419.09;;;19.45;41.75
62544;BME280;48597;49.030;1.822;2023-04-01T00:43:31;99422.75;;;19.46;41.74
62544;BME280;48597;49.030;1.822;2023-04-01T00:45:57;99423.22;;;19.44;41.77
62544;BME280;48597;49.030;1.822;2023-04-01T00:48:28;99425.28;;;19.44;41.78
62544;BME280;48597;49.030;1.822;2023-04-01T00:51:17;99420.38;;;19.44;41.63
62544;BME280;48597;49.030;1.822;2023-04-01T00:53:47;99422.91;;;19.42;41.80
62544;BME280;48597;49.030;1.822;2023-04-01T00:56:16;99415.13;;;19.43;41.83
62544;BME280;48597;49.030;1.822;2023-04-01T00:58:52;99425.78;;;19.42;41.74
62544;BME280;48597;49.030;1.822;2023-04-01T01:01:21;99424.19;;;19.41;41.74
62544;BME280;48597;49.030;1.822;2023-04-01T01:03:47;99424.19;;;19.41;41.97
62544;BME280;48597;49.030;1.822;2023-04-01T01:17:34;99431.53;;;19.33;42.32
62544;BME280;48597;49.030;1.822;2023-04-01T01:23:09;99444.53;;;19.34;42.32
62544;BME280;48597;49.030;1.822;2023-04-01T01:31:23;99432.31;;;19.34;42.49
62544;BME280;48597;49.030;1.822;2023-04-01T01:34:16;99434.38;;;19.33;42.64
62544;BME280;48597;49.030;1.822;2023-04-01T01:36:44;99435.19;;;19.34;42.67
62544;BME280;48597;49.030;1.822;2023-04-01T01:39:13;99441.69;;;19.34;42.54
62544;BME280;48597;49.030;1.822;2023-04-01T01:41:41;99436.75;;;19.35;42.67
62544;BME280;48597;49.030;1.822;2023-04-01T01:44:08;99459.59;;;19.35;42.63
62544;BME280;48597;49.030;1.822;2023-04-01T01:46:35;99443.25;;;19.35;42.74
62544;BME280;48597;49.030;1.822;2023-04-01T01:49:04;99445.31;;;19.35;42.57
62544;BME280;48597;49.030;1.822;2023-04-01T01:51:31;99444.03;;;19.36;42.74
62544;BME280;48597;49.030;1.822;2023-04-01T01:53:57;99457.06;;;19.37;42.63
62544;BME280;48597;49.030;1.822;2023-04-01T01:56:25;99452.94;;;19.38;42.78
62544;BME280;48597;49.030;1.822;2023-04-01T01:58:56;99443.56;;;19.37;42.78
62544;BME280;48597;49.030;1.822;2023-04-01T02:01:27;99463.09;;;19.39;42.75
62544;BME280;48597;49.030;1.822;2023-04-01T02:04:00;99461.00;;;19.39;42.88
62544;BME280;48597;49.030;1.822;2023-04-01T02:06:28;99474.03;;;19.40;42.71
62544;BME280;48597;49.030;1.822;2023-04-01T02:08:59;99468.31;;;19.40;43.08
62544;BME280;48597;49.030;1.822;2023-04-01T02:11:41;99477.22;;;19.42;42.94
62544;BME280;48597;49.030;1.822;2023-04-01T02:15:09;99464.97;;;19.42;42.84
62544;BME280;48597;49.030;1.822;2023-04-01T02:17:07;99460.38;;;19.44;43.03
62544;BME280;48597;49.030;1.822;2023-04-01T02:19:38;99462.44;;;19.44;43.02
62544;BME280;48597;49.030;1.822;2023-04-01T02:22:08;99466.88;;;19.45;43.04
62544;BME280;48597;49.030;1.822;2023-04-01T02:24:35;99475.78;;;19.47;43.15
62544;BME280;48597;49.030;1.822;2023-04-01T02:27:01;99468.00;;;19.47;43.07
62544;BME280;48597;49.030;1.822;2023-04-01T02:29:27;99474.03;;;19.49;43.02
62544;BME280;48597;49.030;1.822;2023-04-01T02:31:53;99472.28;;;19.52;43.05
62544;BME280;48597;49.030;1.822;2023-04-01T02:34:21;99473.84;;;19.53;43.14
62544;BME280;48597;49.030;1.822;2023-04-01T02:36:49;99473.06;;;19.52;43.14
62544;BME280;48597;49.030;1.822;2023-04-01T02:39:15;99475.44;;;19.54;43.18
62544;BME280;48597;49.030;1.822;2023-04-01T02:41:42;99479.41;;;19.56;43.24
62544;BME280;48597;49.030;1.822;2023-04-01T02:44:09;99480.19;;;19.57;43.17
62544;BME280;48597;49.030;1.822;2023-04-01T02:46:36;99478.94;;;19.58;43.38
62544;BME280;48597;49.030;1.822;2023-04-01T02:49:01;99472.72;;;19.59;43.20
62544;BME280;48597;49.030;1.822;2023-04-01T02:51:27;99479.53;;;19.62;43.19
62544;BME280;48597;49.030;1.822;2023-04-01T02:53:52;99476.38;;;19.60;43.16
62544;BME280;48597;49.030;1.822;2023-04-01T02:56:17;99485.25;;;19.62;43.39
62544;BME280;48597;49.030;1.822;2023-04-01T02:58:45;99505.25;;;19.62;43.16
62544;BME280;48597;49.030;1.822;2023-04-01T03:01:10;99495.88;;;19.61;43.15
62544;BME280;48597;49.030;1.822;2023-04-01T03:03:36;99501.91;;;19.63;43.20
62544;BME280;48597;49.030;1.822;2023-04-01T03:06:13;99493.34;;;19.63;43.28
62544;BME280;48597;49.030;1.822;2023-04-01T03:08:39;99504.31;;;19.65;43.07
62544;BME280;48597;49.030;1.822;2023-04-01T03:11:05;99502.22;;;19.66;43.21
62544;BME280;48597;49.030;1.822;2023-04-01T03:13:31;99513.66;;;19.66;43.12
62544;BME280;48597;49.030;1.822;2023-04-01T03:15:56;99519.38;;;19.66;43.09
62544;BME280;48597;49.030;1.822;2023-04-01T03:18:22;99518.91;;;19.67;43.20
62544;BME280;48597;49.030;1.822;2023-04-01T03:20:48;99516.03;;;19.67;43.16
62544;BME280;48597;49.030;1.822;2023-04-01T03:23:13;99513.97;;;19.68;43.23
62544;BME280;48597;49.030;1.822;2023-04-01T03:25:42;99522.06;;;19.69;43.15
62544;BME280;48597;49.030;1.822;2023-04-01T03:28:11;99524.16;;;19.69;43.18
62544;BME280;48597;49.030;1.822;2023-04-01T03:30:37;99527.00;;;19.69;43.35
62544;BME280;48597;49.030;1.822;2023-04-01T03:33:03;99525.72;;;19.70;43.12
62544;BME280;48597;49.030;1.822;2023-04-01T03:35:28;99526.22;;;19.68;43.13
62544;BME280;48597;49.030;1.822;2023-04-01T03:37:54;99524.16;;;19.69;43.25
62544;BME280;48597;49.030;1.822;2023-04-01T03:40:23;99524.16;;;19.69;43.18
62544;BME280;48597;49.030;1.822;2023-04-01T03:42:51;99530.66;;;19.69;43.30
62544;BME280;48597;49.030;1.822;2023-04-01T03:45:20;99534.31;;;19.70;43.16
62544;BME280;48597;49.030;1.822;2023-04-01T03:47:45;99527.78;;;19.69;43.35
62544;BME280;48597;49.030;1.822;2023-04-01T03:50:13;99534.00;;;19.68;43.14
62544;BME280;48597;49.030;1.822;2023-04-01T03:52:41;99535.56;;;19.69;43.23
62544;BME280;48597;49.030;1.822;2023-04-01T03:55:07;99531.13;;;19.68;43.17
62544;BME280;48597;49.030;1.822;2023-04-01T03:57:33;99535.56;;;19.69;43.11
62544;BME280;48597;49.030;1.822;2023-04-01T03:59:58;99535.25;;;19.67;43.06
62544;BME280;48597;49.030;1.822;2023-04-01T04:02:24;99533.19;;;19.67;43.07
62544;BME280;48597;49.030;1.822;2023-04-01T04:04:49;99529.53;;;19.67;43.04
62544;BME280;48597;49.030;1.822;2023-04-01T04:07:15;99548.28;;;19.68;43.00
62544;BME280;48597;49.030;1.822;2023-04-01T04:09:40;99543.34;;;19.68;43.09
62544;BME280;48597;49.030;1.822;2023-04-01T04:12:06;99534.78;;;19.68;43.02
62544;BME280;48597;49.030;1.822;2023-04-01T04:14:31;99535.56;;;19.69;43.17
62544;BME280;48597;49.030;1.822;2023-04-01T04:16:57;99540.50;;;19.68;43.17
62544;BME280;48597;49.030;1.822;2023-04-01T04:19:22;99547.81;;;19.69;43.05
62544;BME280;48597;49.030;1.822;2023-04-01T04:21:48;99548.28;;;19.68;43.04
62544;BME280;48597;49.030;1.822;2023-04-01T04:24:13;99551.94;;;19.68;43.01
62544;BME280;48597;49.030;1.822;2023-04-01T04:26:39;99549.88;;;19.69;42.97
62544;BME280;48597;49.030;1.822;2023-04-01T04:29:04;99546.22;;;19.68;42.99
62544;BME280;48597;49.030;1.822;2023-04-01T04:31:30;99551.16;;;19.68;43.07
62544;BME280;48597;49.030;1.822;2023-04-01T04:33:55;99556.06;;;19.67;43.02
62544;BME280;48597;49.030;1.822;2023-04-01T04:36:21;99547.50;;;19.67;42.85
62544;BME280;48597;49.030;1.822;2023-04-01T04:38:47;99548.75;;;19.66;42.90
62544;BME280;48597;49.030;1.822;2023-04-01T04:41:14;99555.28;;;19.67;42.91
62544;BME280;48597;49.030;1.822;2023-04-01T04:43:41;99550.81;;;19.66;42.85
62544;BME280;48597;49.030;1.822;2023-04-01T04:46:07;99556.53;;;19.66;42.93
62544;BME280;48597;49.030;1.822;2023-04-01T04:48:33;99553.69;;;19.66;43.03
62544;BME280;48597;49.030;1.822;2023-04-01T04:50:58;99567.97;;;19.66;42.93
62544;BME280;48597;49.030;1.822;2023-04-01T04:53:24;99579.41;;;19.66;42.94
62544;BME280;48597;49.030;1.822;2023-04-01T04:55:51;99576.56;;;19.66;43.09
62544;BME280;48597;49.030;1.822;2023-04-01T04:58:17;99572.91;;;19.65;42.92
62544;BME280;48597;49.030;1.822;2023-04-01T05:00:43;99562.75;;;19.64;42.90
62544;BME280;48597;49.030;1.822;2023-04-01T05:03:09;99567.66;;;19.63;43.08
62544;BME280;48597;49.030;1.822;2023-04-01T05:05:35;99582.75;;;19.64;43.11
62544;BME280;48597;49.030;1.822;2023-04-01T05:08:01;99584.03;;;19.63;43.06
62544;BME280;48597;49.030;1.822;2023-04-01T05:10:27;99596.25;;;19.63;42.81
62544;BME280;48597;49.030;1.822;2023-04-01T05:12:52;99588.16;;;19.62;43.08
62544;BME280;48597;49.030;1.822;2023-04-01T05:15:18;99593.88;;;19.62;43.12
62544;BME280;48597;49.030;1.822;2023-04-01T05:17:43;99591.47;;;19.60;42.92
62544;BME280;48597;49.030;1.822;2023-04-01T05:20:11;99589.41;;;19.61;42.98
62544;BME280;48597;49.030;1.822;2023-04-01T05:22:36;99600.84;;;19.61;43.04
62544;BME280;48597;49.030;1.822;2023-04-01T05:25:02;99598.50;;;19.59;43.08
62544;BME280;48597;49.030;1.822;2023-04-01T05:27:27;99602.91;;;19.60;43.03
62544;BME280;48597;49.030;1.822;2023-04-01T05:29:52;99607.06;;;19.59;43.06
62544;BME280;48597;49.030;1.822;2023-04-01T05:32:18;99604.69;;;19.58;43.08
62544;BME280;48597;49.030;1.822;2023-04-01T05:34:43;99609.63;;;19.57;43.05
62544;BME280;48597;49.030;1.822;2023-04-01T05:37:09;99606.75;;;19.57;43.04
62544;BME280;48597;49.030;1.822;2023-04-01T05:39:39;99611.69;;;19.57;43.04
62544;BME280;48597;49.030;1.822;2023-04-01T05:42:08;99614.53;;;19.57;42.96
62544;BME280;48597;49.030;1.822;2023-04-01T05:44:34;99621.53;;;19.56;43.00
62544;BME280;48597;49.030;1.822;2023-04-01T05:47:00;99626.44;;;19.55;42.94
62544;BME280;48597;49.030;1.822;2023-04-01T05:49:25;99620.72;;;19.55;42.89
62544;BME280;48597;49.030;1.822;2023-04-01T05:51:51;99631.38;;;19.55;42.94
62544;BME280;48597;49.030;1.822;2023-04-01T05:54:17;99619.94;;;19.55;42.91
62544;BME280;48597;49.030;1.822;2023-04-01T05:56:42;99630.25;;;19.52;42.92
62544;BME280;48597;49.030;1.822;2023-04-01T05:59:10;99631.84;;;19.53;42.91
62544;BME280;48597;49.030;1.822;2023-04-01T06:01:36;99635.50;;;19.54;42.94
62544;BME280;48597;49.030;1.822;2023-04-01T06:04:01;99639.63;;;19.53;42.82
62544;BME280;48597;49.030;1.822;2023-04-01T06:06:28;99640.09;;;19.51;42.95
62544;BME280;48597;49.030;1.822;2023-04-01T06:08:57;99635.97;;;19.52;42.82
62544;BME280;48597;49.030;1.822;2023-04-01T06:11:33;99633.59;;;19.51;42.92
62544;BME280;48597;49.030;1.822;2023-04-01T06:14:30;99635.66;;;19.50;42.85
62544;BME280;48597;49.030;1.822;2023-04-01T06:19:54;99648.34;;;19.49;42.88
62544;BME280;48597;49.030;1.822;2023-04-01T06:34:00;99659.16;;;19.45;42.55
62544;BME280;48597;49.030;1.822;2023-04-01T06:36:50;99669.31;;;19.46;42.78
62544;BME280;48597;49.030;1.822;2023-04-01T06:45:41;99671.84;;;19.44;42.77
62544;BME280;48597;49.030;1.822;2023-04-01T06:51:02;99668.19;;;19.44;42.77
62544;BME280;48597;49.030;1.822;2023-04-01T06:53:38;99667.41;;;19.43;42.57
62544;BME280;48597;49.030;1.822;2023-04-01T06:56:14;99671.53;;;19.42;42.74
62544;BME280;48597;49.030;1.822;2023-04-01T06:58:48;99667.41;;;19.43;42.79
62544;BME280;48597;49.030;1.822;2023-04-01T07:01:24;99675.16;;;19.43;42.69
62544;BME280;48597;49.030;1.822;2023-04-01T07:04:14;99671.53;;;19.42;42.70
62544;BME280;48597;49.030;1.822;2023-04-01T07:06:55;99675.66;;;19.41;42.67
62544;BME280;48597;49.030;1.822;2023-04-01T07:09:38;99684.22;;;19.41;42.54
62544;BME280;48597;49.030;1.822;2023-04-01T07:14:54;99690.41;;;19.40;42.71
62544;BME280;48597;49.030;1.822;2023-04-01T07:17:24;99683.91;;;19.39;42.69
62544;BME280;48597;49.030;1.822;2023-04-01T07:20:02;99684.69;;;19.40;42.60
62544;BME280;48597;49.030;1.822;2023-04-01T07:22:34;99698.19;;;19.39;42.64
62544;BME280;48597;49.030;1.822;2023-04-01T07:25:16;99698.19;;;19.39;42.69
62544;BME280;48597;49.030;1.822;2023-04-01T07:27:42;99695.97;;;19.34;42.72
62544;BME280;48597;49.030;1.822;2023-04-01T07:37:58;99705.31;;;19.35;42.57
62544;BME280;48597;49.030;1.822;2023-04-01T07:40:40;99693.13;;;19.34;42.71
62544;BME280;48597;49.030;1.822;2023-04-01T07:43:23;99695.97;;;19.34;42.71
62544;BME280;48597;49.030;1.822;2023-04-01T07:46:26;99704.56;;;19.34;42.47
62544;BME280;48597;49.030;1.822;2023-04-01T07:49:15;99709.47;;;19.34;42.56
62544;BME280;48597;49.030;1.822;2023-04-01T07:54:25;99711.69;;;19.30;42.67
62544;BME280;48597;49.030;1.822;2023-04-01T07:59:55;99723.44;;;19.32;42.67
62544;BME280;48597;49.030;1.822;2023-04-01T08:05:04;99723.44;;;19.32;42.59
62544;BME280;48597;49.030;1.822;2023-04-01T08:13:13;99732.47;;;19.30;42.64
62544;BME280;48597;49.030;1.822;2023-04-01T08:15:52;99733.28;;;19.31;42.68
62544;BME280;48597;49.030;1.822;2023-04-01T08:18:46;99732.94;;;19.28;42.69
62544;BME280;48597;49.030;1.822;2023-04-01T08:21:25;99724.84;;;19.27;42.93
62544;BME280;48597;49.030;1.822;2023-04-01T08:23:58;99731.81;;;19.26;42.93
62544;BME280;48597;49.030;1.822;2023-04-01T08:26:38;99732.63;;;19.26;42.90
62544;BME280;48597;49.030;1.822;2023-04-01T08:29:18;99737.53;;;19.26;42.94
62544;BME280;48597;49.030;1.822;2023-04-01T08:31:55;99744.84;;;19.27;43.02
62544;BME280;48597;49.030;1.822;2023-04-01T08:34:28;99735.81;;;19.28;43.05
62544;BME280;48597;49.030;1.822;2023-04-01T08:37:07;99725.97;;;19.30;43.11
62544;BME280;48597;49.030;1.822;2023-04-01T08:40:16;99737.38;;;19.30;43.31
62544;BME280;48597;49.030;1.822;2023-04-01T08:46:01;99749.63;;;19.30;43.34
62544;BME280;48597;49.030;1.822;2023-04-01T08:57:41;99752.31;;;19.34;43.51
62544;BME280;48597;49.030;1.822;2023-04-01T09:00:43;99751.81;;;19.35;43.49
62544;BME280;48597;49.030;1.822;2023-04-01T09:03:37;99756.28;;;19.36;43.51
62544;BME280;48597;49.030;1.822;2023-04-01T09:06:31;99755.00;;;19.37;43.58
62544;BME280;48597;49.030;1.822;2023-04-01T09:09:05;99754.53;;;19.39;43.65
62544;BME280;48597;49.030;1.822;2023-04-01T09:14:40;99755.66;;;19.41;43.71
62544;BME280;48597;49.030;1.822;2023-04-01T09:20:33;99758.84;;;19.43;43.86
62544;BME280;48597;49.030;1.822;2023-04-01T09:25:48;99751.38;;;19.46;43.60
62544;BME280;48597;49.030;1.822;2023-04-01T09:28:20;99746.47;;;19.46;43.60
62544;BME280;48597;49.030;1.822;2023-04-01T09:33:24;99754.09;;;19.49;43.64
62544;BME280;48597;49.030;1.822;2023-04-01T09:36:07;99762.66;;;19.49;43.70
62544;BME280;48597;49.030;1.822;2023-04-01T09:38:55;99763.47;;;19.50;43.67
62544;BME280;48597;49.030;1.822;2023-04-01T09:41:35;99761.41;;;19.50;43.75
62544;BME280;48597;49.030;1.822;2023-04-01T10:04:09;99776.53;;;19.60;43.70
62544;BME280;48597;49.030;1.822;2023-04-01T10:23:12;99780.78;;;19.65;43.67
62544;BME280;48597;49.030;1.822;2023-04-01T10:28:53;99777.47;;;19.66;43.55
62544;BME280;48597;49.030;1.822;2023-04-01T10:31:54;99778.25;;;19.67;43.45
62544;BME280;48597;49.030;1.822;2023-04-01T10:37:39;99783.97;;;19.67;43.64
62544;BME280;48597;49.030;1.822;2023-04-01T10:54:36;99791.28;;;19.68;43.43
62544;BME280;48597;49.030;1.822;2023-04-01T11:26:09;99772.72;;;19.72;43.24
62544;BME280;48597;49.030;1.822;2023-04-01T11:31:44;99772.22;;;19.74;43.04
62544;BME280;48597;49.030;1.822;2023-04-01T11:34:38;99766.50;;;19.74;43.21
62544;BME280;48597;49.030;1.822;2023-04-01T11:42:54;99787.28;;;19.74;43.32
62544;BME280;48597;49.030;1.822;2023-04-01T11:51:53;99775.38;;;19.76;43.65
62544;BME280;48597;49.030;1.822;2023-04-01T11:57:21;99781.59;;;19.74;43.66
62544;BME280;48597;49.030;1.822;2023-04-01T12:03:16;99793.81;;;19.75;43.66
62544;BME280;48597;49.030;1.822;2023-04-01T13:23:19;99796.06;;;19.80;45.01
62544;BME280;48597;49.030;1.822;2023-04-01T13:26:12;99797.31;;;19.79;45.07
62544;BME280;48597;49.030;1.822;2023-04-01T13:28:53;99798.13;;;19.79;45.35
62544;BME280;48597;49.030;1.822;2023-04-01T13:39:17;99800.97;;;19.79;45.28
62544;BME280;48597;49.030;1.822;2023-04-01T13:44:51;99816.53;;;19.78;45.29
62544;BME280;48597;49.030;1.822;2023-04-01T13:53:51;99819.41;;;19.78;45.34
62544;BME280;48597;49.030;1.822;2023-04-01T13:56:07;99811.28;;;19.77;45.46
62544;BME280;48597;49.030;1.822;2023-04-01T14:01:53;99821.13;;;19.76;45.44
62544;BME280;48597;49.030;1.822;2023-04-01T14:13:31;99829.72;;;19.76;45.57
62544;BME280;48597;49.030;1.822;2023-04-01T14:18:57;99840.69;;;19.77;45.55
62544;BME280;48597;49.030;1.822;2023-04-01T14:21:33;99847.53;;;19.80;45.45
62544;BME280;48597;49.030;1.822;2023-04-01T14:24:29;99843.06;;;19.79;45.21
62544;BME280;48597;49.030;1.822;2023-04-01T14:49:43;99884.22;;;19.81;45.20
62544;BME280;48597;49.030;1.822;2023-04-01T14:52:38;99880.56;;;19.81;45.04
62544;BME280;48597;49.030;1.822;2023-04-01T14:55:28;99891.22;;;19.80;45.03
62544;BME280;48597;49.030;1.822;2023-04-01T14:58:09;99889.16;;;19.81;45.19
62544;BME280;48597;49.030;1.822;2023-04-01T15:03:40;99902.19;;;19.82;45.18
62544;BME280;48597;49.030;1.822;2023-04-01T15:14:34;99937.75;;;19.81;45.29
62544;BME280;48597;49.030;1.822;2023-04-01T15:26:20;99919.81;;;19.80;45.07
62544;BME280;48597;49.030;1.822;2023-04-01T15:29:20;99937.75;;;19.81;45.00
62544;BME280;48597;49.030;1.822;2023-04-01T15:34:24;99938.56;;;19.81;45.20
62544;BME280;48597;49.030;1.822;2023-04-01T15:42:22;99943.47;;;19.81;44.97
62544;BME280;48597;49.030;1.822;2023-04-01T15:44:55;99952.53;;;19.79;44.99
62544;BME280;48597;49.030;1.822;2023-04-01T15:55:50;99966.81;;;19.79;44.76
62544;BME280;48597;49.030;1.822;2023-04-01T16:18:09;99968.88;;;19.79;44.56
62544;BME280;48597;49.030;1.822;2023-04-01T16:20:53;99977.47;;;19.79;44.43
62544;BME280;48597;49.030;1.822;2023-04-01T16:23:37;99976.66;;;19.78;44.33
62544;BME280;48597;49.030;1.822;2023-04-01T16:26:22;99982.38;;;19.78;44.37
62544;BME280;48597;49.030;1.822;2023-04-01T16:29:02;99973.00;;;19.78;44.54
62544;BME280;48597;49.030;1.822;2023-04-01T16:31:53;99981.59;;;19.78;44.32
62544;BME280;48597;49.030;1.822;2023-04-01T16:34:31;99990.16;;;19.78;44.40
62544;BME280;48597;49.030;1.822;2023-04-01T16:37:20;99990.63;;;19.76;44.31
62544;BME280;48597;49.030;1.822;2023-04-01T16:40:16;100002.06;;;19.76;44.25
62544;BME280;48597;49.030;1.822;2023-04-01T16:45:26;100013.50;;;19.76;44.27
62544;BME280;48597;49.030;1.822;2023-04-01T16:48:15;100011.91;;;19.75;44.21
62544;BME280;48597;49.030;1.822;2023-04-01T16:55:52;100020.50;;;19.75;44.24
62544;BME280;48597;49.030;1.822;2023-04-01T17:01:47;100023.81;;;19.74;44.20
62544;BME280;48597;49.030;1.822;2023-04-01T17:04:23;100032.72;;;19.76;44.13
62544;BME280;48597;49.030;1.822;2023-04-01T17:06:55;100031.13;;;19.75;44.17
62544;BME280;48597;49.030;1.822;2023-04-01T17:12:12;100040.97;;;19.74;44.12
62544;BME280;48597;49.030;1.822;2023-04-01T17:17:41;100053.72;;;19.73;44.19
62544;BME280;48597;49.030;1.822;2023-04-01T17:20:32;100048.44;;;19.71;44.01
62544;BME280;48597;49.030;1.822;2023-04-01T17:23:27;100060.69;;;19.72;44.09
62544;BME280;48597;49.030;1.822;2023-04-01T17:34:09;100077.50;;;19.70;43.97
62544;BME280;48597;49.030;1.822;2023-04-01T17:39:53;100086.09;;;19.70;43.98
62544;BME280;48597;49.030;1.822;2023-04-01T17:42:47;100078.78;;;19.69;44.00
62544;BME280;48597;49.030;1.822;2023-04-01T17:50:24;100095.94;;;19.69;43.96
62544;BME280;48597;49.030;1.822;2023-04-01T18:06:09;100118.47;;;19.67;44.00
62544;BME280;48597;49.030;1.822;2023-04-01T18:17:21;100134.03;;;19.66;43.92
62544;BME280;48597;49.030;1.822;2023-04-01T18:19:55;100145.47;;;19.66;43.94
62544;BME280;48597;49.030;1.822;2023-04-01T18:27:50;100143.06;;;19.64;43.90
62544;BME280;48597;49.030;1.822;2023-04-01T18:30:21;100155.31;;;19.65;44.08
62544;BME280;48597;49.030;1.822;2023-04-01T18:41:35;100184.34;;;19.63;44.12
62544;BME280;48597;49.030;1.822;2023-04-01T18:52:42;100204.81;;;19.61;43.95
62544;BME280;48597;49.030;1.822;2023-04-01T18:59:03;100219.13;;;19.61;43.89
62544;BME280;48597;49.030;1.822;2023-04-01T19:01:18;100214.66;;;19.60;43.92
62544;BME280;48597;49.030;1.822;2023-04-01T19:04:14;100224.53;;;19.59;43.94
62544;BME280;48597;49.030;1.822;2023-04-01T19:07:29;100231.50;;;19.58;43.88
62544;BME280;48597;49.030;1.822;2023-04-01T19:20:56;100258.50;;;19.57;43.85
62544;BME280;48597;49.030;1.822;2023-04-01T19:26:33;100276.13;;;19.56;43.82
62544;BME280;48597;49.030;1.822;2023-04-01T19:29:17;100276.13;;;19.56;43.75
62544;BME280;48597;49.030;1.822;2023-04-01T19:37:39;100291.66;;;19.55;43.76
62544;BME280;48597;49.030;1.822;2023-04-01T19:53:23;100320.72;;;19.53;43.70
62544;BME280;48597;49.030;1.822;2023-04-01T19:55:58;100326.44;;;19.53;43.77
62544;BME280;48597;49.030;1.822;2023-04-01T19:58:31;100322.78;;;19.53;43.77
62544;BME280;48597;49.030;1.822;2023-04-01T20:00:59;100333.41;;;19.52;43.77
62544;BME280;48597;49.030;1.822;2023-04-01T20:03:41;100332.59;;;19.52;43.80
62544;BME280;48597;49.030;1.822;2023-04-01T20:06:54;100331.00;;;19.51;43.67
62544;BME280;48597;49.030;1.822;2023-04-01T20:12:00;100338.31;;;19.52;43.75
62544;BME280;48597;49.030;1.822;2023-04-01T20:14:51;100335.13;;;19.50;43.75
62544;BME280;48597;49.030;1.822;2023-04-01T20:25:23;100364.13;;;19.48;43.77
62544;BME280;48597;49.030;1.822;2023-04-01T20:28:02;100369.84;;;19.48;43.72
62544;BME280;48597;49.030;1.822;2023-04-01T20:36:05;100382.56;;;19.47;43.76
62544;BME280;48597;49.030;1.822;2023-04-01T20:46:48;100398.13;;;19.46;43.72
62544;BME280;48597;49.030;1.822;2023-04-01T21:04:50;100402.22;;;19.45;44.07
62544;BME280;48597;49.030;1.822;2023-04-01T21:07:38;100412.06;;;19.44;43.82
62544;BME280;48597;49.030;1.822;2023-04-01T21:13:32;100425.56;;;19.44;43.77
62544;BME280;48597;49.030;1.822;2023-04-01T21:27:09;100427.25;;;19.41;43.76
62544;BME280;48597;49.030;1.822;2023-04-01T21:29:57;100419.50;;;19.42;43.69
62544;BME280;48597;49.030;1.822;2023-04-01T21:37:58;100428.50;;;19.40;43.85
62544;BME280;48597;49.030;1.822;2023-04-01T21:43:40;100442.81;;;19.40;43.73
62544;BME280;48597;49.030;1.822;2023-04-01T22:00:29;100451.03;;;19.38;43.65
62544;BME280;48597;49.030;1.822;2023-04-01T22:13:50;100471.50;;;19.37;43.54
62544;BME280;48597;49.030;1.822;2023-04-01T22:19:03;100475.59;;;19.36;43.69
62544;BME280;48597;49.030;1.822;2023-04-01T22:22:01;100478.47;;;19.36;43.75
62544;BME280;48597;49.030;1.822;2023-04-01T22:24:37;100487.84;;;19.36;43.76
62544;BME280;48597;49.030;1.822;2023-04-01T22:27:52;100488.28;;;19.35;43.68
62544;BME280;48597;49.030;1.822;2023-04-01T22:32:50;100489.91;;;19.36;43.88
62544;BME280;48597;49.030;1.822;2023-04-01T22:35:27;100494.00;;;19.35;43.76
62544;BME280;48597;49.030;1.822;2023-04-01T22:43:11;100496.88;;;19.35;43.82
62544;BME280;48597;49.030;1.822;2023-04-01T22:48:18;100496.09;;;19.34;43.90
62544;BME280;48597;49.030;1.822;2023-04-01T22:51:03;100498.16;;;19.34;43.83
62544;BME280;48597;49.030;1.822;2023-04-01T22:56:20;100505.94;;;19.33;43.86
62544;BME280;48597;49.030;1.822;2023-04-01T23:01:51;100504.78;;;19.31;43.87
62544;BME280;48597;49.030;1.822;2023-04-01T23:04:24;100510.50;;;19.31;43.93
62544;BME280;48597;49.030;1.822;2023-04-01T23:06:54;100506.38;;;19.32;43.92
62544;BME280;48597;49.030;1.822;2023-04-01T23:09:33;100505.56;;;19.31;43.80
62544;BME280;48597;49.030;1.822;2023-04-01T23:12:02;100499.84;;;19.31;43.89
62544;BME280;48597;49.030;1.822;2023-04-01T23:14:36;100505.56;;;19.31;43.85
62544;BME280;48597;49.030;1.822;2023-04-01T23:17:22;100508.44;;;19.31;43.95
62544;BME280;48597;49.030;1.822;2023-04-01T23:20:26;100505.56;;;19.31;43.78
62544;BME280;48597;49.030;1.822;2023-04-01T23:23:05;100512.53;;;19.30;43.86
62544;BME280;48597;49.030;1.822;2023-04-01T23:33:28;100528.09;;;19.29;43.79
62544;BME280;48597;49.030;1.822;2023-04-01T23:36:15;100532.19;;;19.28;43.89
62544;BME280;48597;49.030;1.822;2023-04-01T23:38:42;100540.78;;;19.28;43.88
62544;BME280;48597;49.030;1.822;2023-04-01T23:41:28;100536.31;;;19.27;43.72
62544;BME280;48597;49.030;1.822;2023-04-01T23:44:09;100535.06;;;19.28;43.84
62544;BME280;48597;49.030;1.822;2023-04-01T23:46:37;100539.16;;;19.27;43.93
62544;BME280;48597;49.030;1.822;2023-04-01T23:49:05;100538.38;;;19.26;43.80